Nearby METAR Reports

 

KHIF - Hill Afb/Ogden, Utah, USA
Distance from station: ENE 6mi, 9km
Updated: Mon, 24-Sep-2018 10:58pm MDT
NOT Current
Clear
Clear
 Wind from NE
Wind: NE 12 mph , 19 km/h
Temperature: 54°F , 12°C
Dew Point: 16°F , -9°C
Humidity: 22%
Barometer: 30.14 inHg , 1020.7 hPa
Clouds: Clear
Visibility: 10 miles , 16 km
2018/09/25 04:58 KHIF 250458Z AUTO 04010KT 10SM CLR 12/M09 A3014 RMK AO2 SLP173 T01231088
KOGD - Ogden, Utah, USA
Distance from station: NNE 9mi, 14km
Updated: Tue, 25-Sep-2018 12:53am MDT
Clear
Clear
 Wind from NNW
Wind: NNW 8 mph , 13 km/h
Temperature: 52°F , 11°C
Dew Point: 18°F , -8°C
Humidity: 26%
Barometer: 30.14 inHg , 1020.7 hPa
Clouds: Clear
Visibility: 10 miles , 16 km
2018/09/25 06:53 KOGD 250653Z AUTO 33007KT 10SM CLR 11/M08 A3014 RMK AO2 SLP173 T01061078 402110083
 
KSLC - Salt Lake City, Utah, USA
Distance from station: SSE 21mi, 34km
Updated: Tue, 25-Sep-2018 12:54am MDT
Clear
Clear
 Wind from NNW
Wind: NNW 6 mph , 9 km/h
Temperature: 54°F , 12°C
Dew Point: 28°F , -2°C
Humidity: 38%
Barometer: 30.13 inHg , 1020.3 hPa
Clouds: Clear
Visibility: 10 miles , 16 km
2018/09/25 06:54 KSLC 250654Z 33005KT 10SM CLR 12/M02 A3013 RMK AO2 SLP171 T01171017 402170106
KLGU - Logan, Utah, USA
Distance from station: NNE 50mi, 80km
Updated: Tue, 25-Sep-2018 12:51am MDT
Clear
Clear
 Wind from calm
Wind: Calm
Temperature: 41°F , 5°C
Dew Point: 23°F , -5°C
Humidity: 49%
Barometer: 30.19 inHg , 1022.4 hPa
Clouds: Clear
Visibility: 10 miles , 16 km
2018/09/25 06:51 KLGU 250651Z AUTO 00000KT 10SM CLR 05/M05 A3019 RMK AO2 SLP203 T00501050 402000011
 
K36U - Heber/Russ Mcdon, Utah, USA
Distance from station: SE 53mi, 85km
Updated: Wed, 11-Oct-2017 6:50pm MDT
NOT Current
Clear
Clear
 Wind from SSW
Wind: SSW 10 mph , 17 km/h, Gust: 18 mph , 30 km/h
Temperature: 63°F , 17°C
Dew Point: 16°F , -9°C
Humidity: 16%
Barometer: 29.87 inHg , 1011.5 hPa
Clouds: Clear
Visibility: 10 miles , 16 km
2017/10/12 00:50 K36U 120050Z AUTO 21009G16KT 10SM CLR 17/M09 A2987 RMK AO2
KEVW - Evanston, Wyoming, USA
Distance from station: ENE 55mi, 89km
Updated: Tue, 25-Sep-2018 12:53am MDT
Clear
Clear
 Wind from ENE
Wind: ENE 7 mph , 11 km/h
Temperature: 41°F , 5°C
Wind Chill: 36°F , 2°C
Dew Point: 12°F , -11°C
Humidity: 31%
Barometer: 30.25 inHg , 1024.4 hPa
Clouds: Clear
Visibility: 10 miles , 16 km
2018/09/25 06:53 KEVW 250653Z AUTO 06006KT 10SM CLR 05/M11 A3025 RMK AO2 SLP182 T00501106 401830033
 
KPVU - Provo Muni, Utah, USA
Distance from station: SSE 62mi, 100km
Updated: Tue, 25-Sep-2018 12:56am MDT
Clear
Clear
 Wind from NNE
Wind: NNE 7 mph , 11 km/h
Temperature: 50°F , 10°C
Wind Chill: 47°F , 8°C
Dew Point: 25°F , -4°C
Humidity: 37%
Barometer: 30.14 inHg , 1020.7 hPa
Clouds: Clear
Visibility: 10 miles , 16 km
2018/09/25 06:56 KPVU 250656Z AUTO 03006KT 10SM CLR 10/M04 A3014 RMK AO2 SLP176 T01001039 402330094
KDPG - Dugway Prvg Grou, Utah, USA
Distance from station: SW 75mi, 121km
Updated: Mon, 24-Sep-2018 4:50pm MDT
NOT Current
Clear
Clear
 Wind from NW
Wind: NW 12 mph , 19 km/h, Gust: 18 mph , 30 km/h
Temperature: 75°F , 24°C
Dew Point: 21°F , -6°C
Humidity: 13%
Barometer: 30.01 inHg , 1016.3 hPa
Clouds: Clear
Visibility: 35 miles , 56 km
2018/09/24 22:50 KDPG 242250Z 32010G16KT 35SM SKC 24/M06 A3001 RMK SLP120 T02431063 LAST
 
KENV - Wendover (aut), Utah, USA
Distance from station: WSW 105mi, 169km
Updated: Tue, 25-Sep-2018 12:56am MDT
Clear
Clear
 Wind from N
Wind: N 13 mph , 20 km/h
Temperature: 57°F , 14°C
Dew Point: 12°F , -11°C
Humidity: 17%
Barometer: 30.18 inHg , 1022 hPa
Clouds: Clear
Visibility: 10 miles , 16 km
2018/09/25 06:56 KENV 250656Z AUTO 36011KT 10SM CLR 14/M11 A3018 RMK AO2 SLP197 T01441111 402330094
KPUC - Price, Utah, USA
Distance from station: SE 123mi, 197km
Updated: Tue, 25-Sep-2018 12:53am MDT
Clear
Clear
 Wind from NNW
Wind: NNW 13 mph , 20 km/h, Gust: 24 mph , 39 km/h
Temperature: 57°F , 14°C
Dew Point: 18°F , -8°C
Humidity: 21%
Barometer: 30.11 inHg , 1019.6 hPa
Clouds: Clear
Visibility: 10 miles , 16 km
2018/09/25 06:53 KPUC 250653Z AUTO 33011G21KT 10SM CLR 14/M08 A3011 RMK AO2 SLP128 T01441083 402610094
 
KPIH - Pocatello, Idaho, USA
Distance from station: NNW 130mi, 208km
Updated: Tue, 25-Sep-2018 12:53am MDT
Clear
Clear
 Wind from SSW
Wind: SSW 8 mph , 13 km/h
Temperature: 41°F , 5°C
Wind Chill: 36°F , 2°C
Dew Point: 18°F , -8°C
Humidity: 39%
Barometer: 30.22 inHg , 1023.4 hPa
Clouds: Clear
Visibility: 10 miles , 16 km
2018/09/25 06:53 KPIH 250653Z AUTO 20007KT 10SM CLR 05/M08 A3022 RMK AO2 SLP223 T00501083 401830033
KBYI - Burley, Idaho, USA
Distance from station: NW 134mi, 216km
Updated: Tue, 25-Sep-2018 12:53am MDT
Clear
Clear
 Wind from S
Wind: S 5 mph , 7 km/h
Temperature: 45°F , 7°C
Wind Chill: 42°F , 6°C
Dew Point: 21°F , -6°C
Humidity: 39%
Barometer: 30.20 inHg , 1022.7 hPa
Clouds: Clear
Visibility: 10 miles , 16 km
2018/09/25 06:53 KBYI 250653Z AUTO 19004KT 10SM CLR 07/M06 A3020 RMK AO2 SLP210 T00671061 401890044
 
KVEL - Vernal, Utah, USA
Distance from station: ESE 140mi, 226km
Updated: Tue, 25-Sep-2018 12:53am MDT
Clear
Clear
 Wind from NNE
Wind: NNE 17 mph , 28 km/h, Gust: 28 mph , 44 km/h
Temperature: 57°F , 14°C
Dew Point: 12°F , -11°C
Humidity: 17%
Barometer: 30.13 inHg , 1020.3 hPa
Clouds: Clear
Visibility: 10 miles , 16 km
2018/09/25 06:53 KVEL 250653Z AUTO 02015G24KT 10SM CLR 14/M11 A3013 RMK AO2 PK WND 03027/0606 SLP148 T01391111 402610089
KBPI - Big Piney, Wyoming, USA
Distance from station: NE 145mi, 234km
Updated: Tue, 25-Sep-2018 12:53am MDT
Clear
Clear
 Wind from NNW
Wind: NNW 10 mph , 17 km/h
Temperature: 30°F , -1°C
Wind Chill: 21°F , -6°C
Dew Point: 18°F , -8°C
Humidity: 59%
Barometer: 30.24 inHg , 1024 hPa
Clouds: Clear
Visibility: 10 miles , 16 km
2018/09/25 06:53 KBPI 250653Z AUTO 34009KT 10SM CLR M01/M08 A3024 RMK AO2 SLP196 T10061078 401721028